createdAt,value
2022-12-25T00:01:26.863Z,1023.5
2022-12-25T00:07:04.271Z,1023.4
2022-12-25T00:12:32.708Z,1023.5
2022-12-25T00:18:07.042Z,1023.3
2022-12-25T00:23:32.838Z,1023.3
2022-12-25T00:28:58.389Z,1023.3
2022-12-25T00:34:29.716Z,1023.4
2022-12-25T00:40:28.903Z,1023.3
2022-12-25T00:46:02.505Z,1023.2
2022-12-25T00:51:09.458Z,1023.2
2022-12-25T00:56:46.848Z,1023.1
2022-12-25T01:02:21.683Z,1023.2
2022-12-25T01:07:53.149Z,1023.1
2022-12-25T01:13:22.411Z,1023.1
2022-12-25T01:18:50.001Z,1023
2022-12-25T01:24:28.075Z,1023.1
2022-12-25T01:29:54.536Z,1023
2022-12-25T01:35:28.949Z,1023.1
2022-12-25T01:41:10.352Z,1023
2022-12-25T01:46:51.597Z,1023.2
2022-12-25T01:52:03.693Z,1023
2022-12-25T01:57:45.876Z,1023
2022-12-25T02:03:28.944Z,1023
2022-12-25T02:08:52.910Z,1023
2022-12-25T02:14:10.637Z,1023.1
2022-12-25T02:19:53.844Z,1023.2
2022-12-25T02:25:17.290Z,1023.1
2022-12-25T02:30:43.576Z,1023
2022-12-25T02:36:33.469Z,1022.9
2022-12-25T02:41:48.555Z,1022.9
2022-12-25T02:47:40.751Z,1022.8
2022-12-25T02:53:09.675Z,1022.8
2022-12-25T02:58:28.698Z,1022.8
2022-12-25T03:04:02.313Z,1022.8
2022-12-25T03:09:54.729Z,1022.8
2022-12-25T03:15:07.731Z,1022.7
2022-12-25T03:20:43.648Z,1022.8
2022-12-25T03:26:12.024Z,1022.7
2022-12-25T03:31:46.475Z,1022.6
2022-12-25T03:37:20.556Z,1022.6
2022-12-25T03:42:58.109Z,1022.6
2022-12-25T03:48:36.896Z,1022.6
2022-12-25T03:53:52.387Z,1022.5
2022-12-25T03:59:36.872Z,1022.4
2022-12-25T04:04:55.212Z,1022.4
2022-12-25T04:10:35.250Z,1022.3
2022-12-25T04:15:57.424Z,1022.4
2022-12-25T04:21:27.656Z,1022.4
2022-12-25T04:27:04.941Z,1022.4
2022-12-25T04:32:39.481Z,1022.4
2022-12-25T04:38:10.414Z,1022.2
2022-12-25T04:43:52.668Z,1022.3
2022-12-25T04:49:11.990Z,1022.3
2022-12-25T04:54:39.544Z,1022.4
2022-12-25T05:00:09.829Z,1022.3
2022-12-25T05:06:05.208Z,1022.3
2022-12-25T05:11:18.158Z,1022.2
2022-12-25T05:16:55.570Z,1022.1
2022-12-25T05:22:42.196Z,1022.2
2022-12-25T05:28:10.258Z,1022.1
2022-12-25T05:33:35.832Z,1022
2022-12-25T05:39:06.025Z,1022
2022-12-25T05:44:45.365Z,1022.1
2022-12-25T05:50:13.495Z,1021.9
2022-12-25T05:55:42.682Z,1021.9
2022-12-25T06:01:18.535Z,1021.7
2022-12-25T06:06:37.198Z,1021.8
2022-12-25T06:12:07.680Z,1021.8
2022-12-25T06:17:44.003Z,1021.7
2022-12-25T06:23:11.703Z,1021.7
2022-12-25T06:28:53.305Z,1021.7
2022-12-25T06:34:39.188Z,1021.7
2022-12-25T06:40:10.634Z,1021.7
2022-12-25T06:45:38.480Z,1021.7
2022-12-25T06:51:01.446Z,1021.7
2022-12-25T06:56:23.825Z,1021.8
2022-12-25T07:02:24.085Z,1021.9
2022-12-25T07:07:45.644Z,1021.9
2022-12-25T07:13:19.348Z,1021.8
2022-12-25T07:18:35.049Z,1021.8
2022-12-25T07:24:27.995Z,1021.8
2022-12-25T07:29:48.169Z,1021.8
2022-12-25T07:35:07.497Z,1021.8
2022-12-25T07:41:04.880Z,1021.9
2022-12-25T07:46:28.741Z,1021.9
2022-12-25T07:51:59.159Z,1022
2022-12-25T07:57:24.103Z,1022.1
2022-12-25T08:02:58.740Z,1022.1
2022-12-25T08:08:19.978Z,1022.2
2022-12-25T08:14:17.755Z,1022.2
2022-12-25T08:19:31.453Z,1022.3
2022-12-25T08:25:18.941Z,1022.3
2022-12-25T08:30:33.688Z,1022.2
2022-12-25T08:36:23.704Z,1022.3
2022-12-25T08:41:54.536Z,1022.2
2022-12-25T08:47:17.636Z,1022.2
2022-12-25T08:52:44.057Z,1022.3
2022-12-25T08:58:21.733Z,1022.3
2022-12-25T09:04:00.651Z,1022.4
2022-12-25T09:09:37.487Z,1022.4
2022-12-25T09:15:03.498Z,1022.3
2022-12-25T09:20:20.178Z,1022.3
2022-12-25T09:26:09.920Z,1022.3
2022-12-25T09:31:45.327Z,1022.3
2022-12-25T09:37:00.105Z,1022.4
2022-12-25T09:42:44.091Z,1022.4
2022-12-25T09:48:09.693Z,1022.5
2022-12-25T09:53:40.116Z,1022.3
2022-12-25T09:59:11.500Z,1022.3
2022-12-25T10:04:43.783Z,1022.3
2022-12-25T10:10:36.535Z,1022.3
2022-12-25T10:16:07.365Z,1022.3
2022-12-25T10:21:42.098Z,1022.2
2022-12-25T10:26:59.436Z,1022.1
2022-12-25T10:32:22.191Z,1022.1
2022-12-25T10:38:06.759Z,1022.1
2022-12-25T10:43:34.556Z,1022.1
2022-12-25T10:49:17.207Z,1022
2022-12-25T10:54:56.588Z,1021.8
2022-12-25T11:00:10.200Z,1021.6
2022-12-25T11:06:01.745Z,1021.7
2022-12-25T11:11:13.949Z,1021.5
2022-12-25T11:17:04.318Z,1021.3
2022-12-25T11:22:13.830Z,1021.4
2022-12-25T11:27:57.879Z,1021.3
2022-12-25T11:33:43.236Z,1021.3
2022-12-25T11:39:10.535Z,1021.4
2022-12-25T11:44:31.776Z,1021.6
2022-12-25T11:50:23.203Z,1021.6
2022-12-25T11:55:31.195Z,1021.4
2022-12-25T12:01:24.841Z,1021.5
2022-12-25T12:07:01.115Z,1021.5
2022-12-25T12:12:11.039Z,1021.1
2022-12-25T12:17:59.094Z,1021.3
2022-12-25T12:23:24.571Z,1021.4
2022-12-25T12:28:48.617Z,1021.5
2022-12-25T12:34:26.199Z,1021.5
2022-12-25T12:39:49.036Z,1021.4
2022-12-25T12:51:08.657Z,1021.4
2022-12-25T12:56:34.869Z,1021.3
2022-12-25T13:02:12.047Z,1021.4
2022-12-25T13:07:56.039Z,1021.5
2022-12-25T13:13:20.386Z,1021.4
2022-12-25T13:18:43.656Z,1021.5
2022-12-25T13:24:25.640Z,1021.5
2022-12-25T13:29:54.556Z,1021.4
2022-12-25T13:35:40.432Z,1021.4
2022-12-25T13:41:12.637Z,1021.4
2022-12-25T13:46:28.693Z,1021.5
2022-12-25T13:52:10.360Z,1021.4
2022-12-25T13:57:33.464Z,1021.4
2022-12-25T14:03:17.445Z,1021.4
2022-12-25T14:08:33.761Z,1021.4
2022-12-25T14:14:16.235Z,1021.3
2022-12-25T14:20:07.777Z,1021.4
2022-12-25T14:25:12.727Z,1021.3
2022-12-25T14:30:47.241Z,1021.5
2022-12-25T14:36:23.976Z,1021.4
2022-12-25T14:42:06.389Z,1021.5
2022-12-25T14:47:36.803Z,1021.4
2022-12-25T14:52:59.902Z,1021.4
2022-12-25T14:58:47.069Z,1021.4
2022-12-25T15:03:56.828Z,1021.6
2022-12-25T15:09:43.658Z,1021.6
2022-12-25T15:15:14.867Z,1021.6
2022-12-25T15:20:38.308Z,1021.5
2022-12-25T15:26:10.205Z,1021.6
2022-12-25T15:31:56.729Z,1021.6
2022-12-25T15:37:26.358Z,1021.7
2022-12-25T15:42:39.510Z,1021.6
2022-12-25T15:48:24.563Z,1021.7
2022-12-25T15:53:43.970Z,1021.7
2022-12-25T15:59:26.070Z,1021.8
2022-12-25T16:04:47.652Z,1021.8
2022-12-25T16:10:39.061Z,1021.7
2022-12-25T16:15:56.792Z,1021.7
2022-12-25T16:21:31.299Z,1021.7
2022-12-25T16:27:06.880Z,1022
2022-12-25T16:32:54.208Z,1021.9
2022-12-25T16:38:10.978Z,1021.9
2022-12-25T16:43:34.262Z,1021.9
2022-12-25T16:49:17.618Z,1021.6
2022-12-25T16:54:53.945Z,1021.9
2022-12-25T17:00:10.062Z,1021.9
2022-12-25T17:05:49.220Z,1022
2022-12-25T17:11:37.464Z,1022.3
2022-12-25T17:17:04.981Z,1022.5
2022-12-25T17:22:35.130Z,1022.4
2022-12-25T17:28:15.225Z,1022.4
2022-12-25T17:33:42.200Z,1022.5
2022-12-25T17:38:55.754Z,1022.5
2022-12-25T17:44:31.407Z,1022.5
2022-12-25T17:49:58.736Z,1022.6
2022-12-25T17:55:41.689Z,1022.7
2022-12-25T18:01:26.849Z,1022.6
2022-12-25T18:06:46.014Z,1022.5
2022-12-25T18:12:22.800Z,1022.5
2022-12-25T18:17:40.912Z,1022.6
2022-12-25T18:23:32.018Z,1022.6
2022-12-25T18:29:09.334Z,1022.6
2022-12-25T18:34:38.012Z,1022.6
2022-12-25T18:40:04.361Z,1022.7
2022-12-25T18:45:43.188Z,1022.6
2022-12-25T18:51:09.839Z,1022.7
2022-12-25T18:56:52.977Z,1022.7
2022-12-25T19:02:20.044Z,1022.8
2022-12-25T19:07:34.309Z,1022.8
2022-12-25T19:13:10.047Z,1022.8
2022-12-25T19:18:55.164Z,1022.7
2022-12-25T19:24:12.259Z,1022.7
2022-12-25T19:29:53.906Z,1022.7
2022-12-25T19:35:09.845Z,1022.8
2022-12-25T19:40:52.366Z,1022.8
2022-12-25T19:46:34.387Z,1022.8
2022-12-25T19:52:07.061Z,1022.8
2022-12-25T19:57:40.815Z,1022.7
2022-12-25T20:02:59.554Z,1022.7
2022-12-25T20:08:40.769Z,1022.9
2022-12-25T20:14:10.420Z,1022.9
2022-12-25T20:19:27.483Z,1023.1
2022-12-25T20:25:02.636Z,1023.1
2022-12-25T20:30:38.538Z,1023.4
2022-12-25T20:36:31.164Z,1023.4
2022-12-25T20:41:58.133Z,1023.5
2022-12-25T20:47:06.149Z,1023.4
2022-12-25T20:52:47.639Z,1023.5
2022-12-25T20:58:35.415Z,1023.7
2022-12-25T21:03:55.834Z,1023.7
2022-12-25T21:09:19.321Z,1023.8
2022-12-25T21:14:49.881Z,1023.9
2022-12-25T21:20:25.668Z,1024
2022-12-25T21:25:59.022Z,1024.1
2022-12-25T21:31:48.230Z,1024
2022-12-25T21:37:07.756Z,1024
2022-12-25T21:42:36.165Z,1024.1
2022-12-25T21:48:07.073Z,1024.1
2022-12-25T21:53:38.189Z,1024.4
2022-12-25T21:59:24.835Z,1024.4
2022-12-25T22:04:45.760Z,1024.3
2022-12-25T22:10:18.979Z,1024.4
2022-12-25T22:15:40.990Z,1024.3
2022-12-25T22:21:20.949Z,1024.4
2022-12-25T22:27:09.608Z,1024.5
2022-12-25T22:32:15.998Z,1024.5
2022-12-25T22:37:55.978Z,1024.4
2022-12-25T22:43:50.831Z,1024.5
2022-12-25T22:49:07.871Z,1024.6
2022-12-25T22:54:22.920Z,1024.6
2022-12-25T23:00:03.691Z,1024.6
2022-12-25T23:05:35.819Z,1024.5
2022-12-25T23:11:03.267Z,1024.6
2022-12-25T23:16:37.678Z,1024.6
2022-12-25T23:22:15.842Z,1024.7
2022-12-25T23:27:42.551Z,1024.9
2022-12-25T23:33:17.645Z,1024.7
2022-12-25T23:39:07.027Z,1024.8
2022-12-25T23:44:36.279Z,1024.9
2022-12-25T23:50:03.568Z,1024.9
2022-12-25T23:55:22.374Z,1024.8
